Terminal Aerodrome Forecast
Issued by NWS Cleveland, OH

Home | Current Version | Previous Version | Text Only | Print | Product List | Glossary On
Versions: 1 2 3 4 5 6 7 8 9 10 11 12 13 14 15 16 17 18
000
FTUS41 KCLE 292323
TAFERI
TAF
KERI 292323Z 3000/3024 32004KT P6SM OVC035
     FM300600 08010KT P6SM OVC035
     FM300900 10012KT P6SM OVC015
     FM301600 13010G20KT P6SM BKN050
     FM302100 21010G20KT P6SM BKN100=

USA.gov is the U.S. government's official web portal to all federal, state and local government web resources and services.